sensor_id;sensor_type;location;lat;lon;timestamp;pressure;altitude;pressure_sealevel;temperature;humidity
75063;BME280;63981;51.052;13.754;2023-04-21T00:02:00;100609.63;;;5.55;90.85
75063;BME280;63981;51.052;13.754;2023-04-21T00:04:26;100615.34;;;5.65;90.67
75063;BME280;63981;51.052;13.754;2023-04-21T00:06:53;100606.88;;;5.58;90.64
75063;BME280;63981;51.052;13.754;2023-04-21T00:09:20;100604.63;;;5.49;91.14
75063;BME280;63981;51.052;13.754;2023-04-21T00:11:46;100603.22;;;5.40;90.95
75063;BME280;63981;51.052;13.754;2023-04-21T00:14:12;100601.94;;;5.28;90.35
75063;BME280;63981;51.052;13.754;2023-04-21T00:16:38;100606.44;;;5.25;90.58
75063;BME280;63981;51.052;13.754;2023-04-21T00:19:03;100600.47;;;5.21;90.76
75063;BME280;63981;51.052;13.754;2023-04-21T00:21:32;100605.25;;;5.10;90.52
75063;BME280;63981;51.052;13.754;2023-04-21T00:23:58;100603.16;;;4.96;91.18
75063;BME280;63981;51.052;13.754;2023-04-21T00:26:24;100609.97;;;5.00;90.91
75063;BME280;63981;51.052;13.754;2023-04-21T00:28:51;100605.91;;;4.92;91.75
75063;BME280;63981;51.052;13.754;2023-04-21T00:31:16;100606.09;;;4.87;91.45
75063;BME280;63981;51.052;13.754;2023-04-21T00:33:42;100591.72;;;4.76;91.33
75063;BME280;63981;51.052;13.754;2023-04-21T00:36:08;100525.97;;;4.41;91.28
75063;BME280;63981;51.052;13.754;2023-04-21T00:38:34;100599.28;;;4.83;92.57
75063;BME280;63981;51.052;13.754;2023-04-21T00:41:00;100595.47;;;4.92;92.63
75063;BME280;63981;51.052;13.754;2023-04-21T00:43:26;100597.47;;;4.85;91.88
75063;BME280;63981;51.052;13.754;2023-04-21T00:45:53;100593.22;;;4.83;92.32
75063;BME280;63981;51.052;13.754;2023-04-21T00:48:19;100587.22;;;4.79;92.26
75063;BME280;63981;51.052;13.754;2023-04-21T00:50:45;100588.25;;;4.75;92.47
75063;BME280;63981;51.052;13.754;2023-04-21T00:53:11;100575.66;;;4.63;92.07
75063;BME280;63981;51.052;13.754;2023-04-21T00:55:39;100597.09;;;4.96;92.94
75063;BME280;63981;51.052;13.754;2023-04-21T00:58:05;100594.28;;;5.00;93.08
75063;BME280;63981;51.052;13.754;2023-04-21T01:00:30;100583.72;;;4.80;91.83
75063;BME280;63981;51.052;13.754;2023-04-21T01:02:56;100584.16;;;4.91;92.74
75063;BME280;63981;51.052;13.754;2023-04-21T01:05:24;100587.88;;;4.86;92.92
75063;BME280;63981;51.052;13.754;2023-04-21T01:07:50;100586.00;;;4.89;92.54
75063;BME280;63981;51.052;13.754;2023-04-21T01:10:16;100574.97;;;4.81;92.50
75063;BME280;63981;51.052;13.754;2023-04-21T01:12:45;100584.97;;;4.70;92.18
75063;BME280;63981;51.052;13.754;2023-04-21T01:15:12;100589.50;;;4.65;93.45
75063;BME280;63981;51.052;13.754;2023-04-21T01:17:39;100498.47;;;4.07;92.64
75063;BME280;63981;51.052;13.754;2023-04-21T01:20:10;100576.78;;;4.56;93.27
75063;BME280;63981;51.052;13.754;2023-04-21T01:22:37;100573.78;;;4.66;93.60
75063;BME280;63981;51.052;13.754;2023-04-21T01:25:03;100578.13;;;4.66;92.67
75063;BME280;63981;51.052;13.754;2023-04-21T01:27:30;100579.97;;;4.64;93.23
75063;BME280;63981;51.052;13.754;2023-04-21T01:29:56;100574.28;;;4.76;92.29
75063;BME280;63981;51.052;13.754;2023-04-21T01:32:24;100575.72;;;4.61;92.94
75063;BME280;63981;51.052;13.754;2023-04-21T01:34:52;100573.66;;;4.46;92.18
75063;BME280;63981;51.052;13.754;2023-04-21T01:37:21;100576.38;;;4.43;92.74
75063;BME280;63981;51.052;13.754;2023-04-21T01:39:52;100579.13;;;4.38;93.66
75063;BME280;63981;51.052;13.754;2023-04-21T01:42:21;100574.03;;;4.35;92.85
75063;BME280;63981;51.052;13.754;2023-04-21T01:44:48;100573.44;;;4.27;92.71
75063;BME280;63981;51.052;13.754;2023-04-21T01:47:16;100536.28;;;4.21;93.22
75063;BME280;63981;51.052;13.754;2023-04-21T01:49:42;100559.47;;;4.53;93.00
75063;BME280;63981;51.052;13.754;2023-04-21T01:52:08;100561.69;;;4.87;94.06
75063;BME280;63981;51.052;13.754;2023-04-21T01:54:34;100567.72;;;4.89;94.14
75063;BME280;63981;51.052;13.754;2023-04-21T01:57:00;100565.03;;;4.67;92.82
75063;BME280;63981;51.052;13.754;2023-04-21T01:59:27;100565.78;;;4.71;93.83
75063;BME280;63981;51.052;13.754;2023-04-21T02:01:53;100566.97;;;4.62;93.15
75063;BME280;63981;51.052;13.754;2023-04-21T02:04:18;100498.47;;;4.07;93.77
75063;BME280;63981;51.052;13.754;2023-04-21T02:06:44;100556.38;;;4.42;93.21
75063;BME280;63981;51.052;13.754;2023-04-21T02:09:10;100558.84;;;4.47;94.77
75063;BME280;63981;51.052;13.754;2023-04-21T02:11:36;100557.09;;;4.47;94.07
75063;BME280;63981;51.052;13.754;2023-04-21T02:14:02;100554.75;;;4.63;94.31
75063;BME280;63981;51.052;13.754;2023-04-21T02:16:28;100551.97;;;4.67;93.96
75063;BME280;63981;51.052;13.754;2023-04-21T02:18:55;100553.00;;;4.63;94.57
75063;BME280;63981;51.052;13.754;2023-04-21T02:21:22;100554.88;;;4.60;93.09
75063;BME280;63981;51.052;13.754;2023-04-21T02:23:49;100480.69;;;4.19;94.36
75063;BME280;63981;51.052;13.754;2023-04-21T02:26:15;100556.06;;;4.51;93.63
75063;BME280;63981;51.052;13.754;2023-04-21T02:28:41;100548.72;;;4.37;94.48
75063;BME280;63981;51.052;13.754;2023-04-21T02:31:07;100556.06;;;4.26;94.50
75063;BME280;63981;51.052;13.754;2023-04-21T02:33:33;100490.47;;;3.87;94.44
75063;BME280;63981;51.052;13.754;2023-04-21T02:35:59;100525.66;;;4.00;94.38
75063;BME280;63981;51.052;13.754;2023-04-21T02:38:25;100510.38;;;3.90;93.71
75063;BME280;63981;51.052;13.754;2023-04-21T02:40:51;100550.41;;;4.13;93.25
75063;BME280;63981;51.052;13.754;2023-04-21T02:43:17;100553.81;;;4.17;94.20
75063;BME280;63981;51.052;13.754;2023-04-21T02:45:43;100552.06;;;4.16;95.04
75063;BME280;63981;51.052;13.754;2023-04-21T02:48:10;100549.03;;;4.28;93.50
75063;BME280;63981;51.052;13.754;2023-04-21T02:50:36;100466.47;;;3.52;94.03
75063;BME280;63981;51.052;13.754;2023-04-21T02:53:04;100553.78;;;3.92;94.03
75063;BME280;63981;51.052;13.754;2023-04-21T02:55:37;100555.84;;;3.82;93.31
75063;BME280;63981;51.052;13.754;2023-04-21T02:58:29;100558.09;;;3.67;93.69
75063;BME280;63981;51.052;13.754;2023-04-21T03:08:52;100563.94;;;3.47;93.61
75063;BME280;63981;51.052;13.754;2023-04-21T03:11:41;100564.09;;;3.42;94.12
75063;BME280;63981;51.052;13.754;2023-04-21T03:14:07;100568.97;;;3.53;94.07
75063;BME280;63981;51.052;13.754;2023-04-21T03:16:33;100565.25;;;3.60;93.81
75063;BME280;63981;51.052;13.754;2023-04-21T03:18:59;100559.91;;;3.65;94.87
75063;BME280;63981;51.052;13.754;2023-04-21T03:21:24;100405.88;;;2.66;93.49
75063;BME280;63981;51.052;13.754;2023-04-21T03:23:51;100558.78;;;3.45;93.76
75063;BME280;63981;51.052;13.754;2023-04-21T03:26:17;100550.06;;;3.46;94.38
75063;BME280;63981;51.052;13.754;2023-04-21T03:28:44;100553.72;;;3.41;93.74
75063;BME280;63981;51.052;13.754;2023-04-21T03:31:11;100548.56;;;3.39;93.58
75063;BME280;63981;51.052;13.754;2023-04-21T03:33:37;100550.16;;;3.43;93.91
75063;BME280;63981;51.052;13.754;2023-04-21T03:36:03;100554.69;;;3.37;94.24
75063;BME280;63981;51.052;13.754;2023-04-21T03:38:29;100550.44;;;3.34;93.52
75063;BME280;63981;51.052;13.754;2023-04-21T03:40:55;100556.59;;;3.32;93.72
75063;BME280;63981;51.052;13.754;2023-04-21T03:43:20;100560.28;;;3.24;94.14
75063;BME280;63981;51.052;13.754;2023-04-21T03:45:46;100554.31;;;3.21;94.04
75063;BME280;63981;51.052;13.754;2023-04-21T03:48:12;100558.78;;;3.17;94.09
75063;BME280;63981;51.052;13.754;2023-04-21T03:50:37;100557.94;;;3.17;93.31
75063;BME280;63981;51.052;13.754;2023-04-21T03:53:03;100567.41;;;3.19;94.23
75063;BME280;63981;51.052;13.754;2023-04-21T03:55:28;100564.13;;;3.13;94.31
75063;BME280;63981;51.052;13.754;2023-04-21T03:57:54;100562.59;;;3.06;93.99
75063;BME280;63981;51.052;13.754;2023-04-21T04:00:20;100563.66;;;3.00;93.85
75063;BME280;63981;51.052;13.754;2023-04-21T04:02:46;100521.38;;;2.62;93.78
75063;BME280;63981;51.052;13.754;2023-04-21T04:05:12;100577.84;;;2.90;93.85
75063;BME280;63981;51.052;13.754;2023-04-21T04:07:38;100580.38;;;2.91;93.86
75063;BME280;63981;51.052;13.754;2023-04-21T04:10:03;100573.16;;;3.01;93.82
75063;BME280;63981;51.052;13.754;2023-04-21T04:12:29;100578.06;;;3.10;93.73
75063;BME280;63981;51.052;13.754;2023-04-21T04:14:55;100578.88;;;3.14;94.18
75063;BME280;63981;51.052;13.754;2023-04-21T04:17:21;100585.63;;;3.19;94.63
75063;BME280;63981;51.052;13.754;2023-04-21T04:19:47;100583.88;;;3.20;93.92
75063;BME280;63981;51.052;13.754;2023-04-21T04:22:12;100578.19;;;3.35;94.00
75063;BME280;63981;51.052;13.754;2023-04-21T04:24:38;100583.31;;;3.38;94.51
75063;BME280;63981;51.052;13.754;2023-04-21T04:27:04;100580.91;;;3.32;94.43
75063;BME280;63981;51.052;13.754;2023-04-21T04:29:30;100576.69;;;3.82;93.79
75063;BME280;63981;51.052;13.754;2023-04-21T04:31:56;100583.22;;;3.69;93.53
75063;BME280;63981;51.052;13.754;2023-04-21T04:34:23;100581.09;;;3.54;93.66
75063;BME280;63981;51.052;13.754;2023-04-21T04:36:48;100580.50;;;3.99;92.90
75063;BME280;63981;51.052;13.754;2023-04-21T04:39:15;100583.16;;;3.97;94.01
75063;BME280;63981;51.052;13.754;2023-04-21T04:41:41;100510.59;;;3.83;92.77
75063;BME280;63981;51.052;13.754;2023-04-21T04:44:07;100580.63;;;4.21;92.87
75063;BME280;63981;51.052;13.754;2023-04-21T04:46:33;100530.81;;;4.02;92.73
75063;BME280;63981;51.052;13.754;2023-04-21T04:49:00;100531.31;;;4.13;92.41
75063;BME280;63981;51.052;13.754;2023-04-21T04:51:26;100509.53;;;3.89;92.23
75063;BME280;63981;51.052;13.754;2023-04-21T04:53:52;100586.81;;;4.18;92.46
75063;BME280;63981;51.052;13.754;2023-04-21T04:56:18;100582.00;;;4.56;91.65
75063;BME280;63981;51.052;13.754;2023-04-21T04:58:43;100580.03;;;4.37;92.31
75063;BME280;63981;51.052;13.754;2023-04-21T05:01:12;100579.84;;;4.43;91.83
75063;BME280;63981;51.052;13.754;2023-04-21T05:03:38;100575.78;;;4.35;92.00
75063;BME280;63981;51.052;13.754;2023-04-21T05:06:04;100595.16;;;4.53;91.79
75063;BME280;63981;51.052;13.754;2023-04-21T05:08:29;100585.31;;;4.61;91.85
75063;BME280;63981;51.052;13.754;2023-04-21T05:10:55;100591.72;;;4.76;92.24
75063;BME280;63981;51.052;13.754;2023-04-21T05:13:21;100590.94;;;4.73;92.79
75063;BME280;63981;51.052;13.754;2023-04-21T05:15:47;100600.25;;;5.04;92.20
75063;BME280;63981;51.052;13.754;2023-04-21T05:18:12;100595.91;;;5.26;91.81
75063;BME280;63981;51.052;13.754;2023-04-21T05:20:41;100529.09;;;4.97;90.60
75063;BME280;63981;51.052;13.754;2023-04-21T05:23:07;100591.78;;;5.21;91.63
75063;BME280;63981;51.052;13.754;2023-04-21T05:25:33;100607.28;;;5.02;91.91
75063;BME280;63981;51.052;13.754;2023-04-21T05:27:58;100572.75;;;5.17;91.52
75063;BME280;63981;51.052;13.754;2023-04-21T05:30:24;100541.78;;;4.85;91.55
75063;BME280;63981;51.052;13.754;2023-04-21T05:32:50;100598.88;;;5.17;91.40
75063;BME280;63981;51.052;13.754;2023-04-21T05:35:16;100594.28;;;5.24;91.34
75063;BME280;63981;51.052;13.754;2023-04-21T05:37:42;100593.97;;;5.31;92.11
75063;BME280;63981;51.052;13.754;2023-04-21T05:40:08;100593.13;;;5.31;91.89
75063;BME280;63981;51.052;13.754;2023-04-21T05:42:34;100598.72;;;5.44;91.26
75063;BME280;63981;51.052;13.754;2023-04-21T05:44:59;100593.94;;;5.55;92.05
75063;BME280;63981;51.052;13.754;2023-04-21T05:47:25;100596.00;;;5.69;91.41
75063;BME280;63981;51.052;13.754;2023-04-21T05:49:51;100594.09;;;5.72;91.49
75063;BME280;63981;51.052;13.754;2023-04-21T05:52:19;100443.00;;;4.94;91.24
75063;BME280;63981;51.052;13.754;2023-04-21T05:54:46;100588.50;;;6.03;91.17
75063;BME280;63981;51.052;13.754;2023-04-21T05:57:11;100553.66;;;6.03;90.50
75063;BME280;63981;51.052;13.754;2023-04-21T05:59:37;100589.91;;;6.32;89.89
75063;BME280;63981;51.052;13.754;2023-04-21T06:02:03;100581.22;;;6.90;89.06
75063;BME280;63981;51.052;13.754;2023-04-21T06:04:29;100581.28;;;6.69;88.46
75063;BME280;63981;51.052;13.754;2023-04-21T06:06:55;100526.66;;;6.41;88.83
75063;BME280;63981;51.052;13.754;2023-04-21T06:09:21;100574.28;;;6.89;88.22
75063;BME280;63981;51.052;13.754;2023-04-21T06:11:46;100577.00;;;7.06;89.07
75063;BME280;63981;51.052;13.754;2023-04-21T06:14:12;100570.91;;;7.05;87.21
75063;BME280;63981;51.052;13.754;2023-04-21T06:16:38;100570.13;;;7.22;87.79
75063;BME280;63981;51.052;13.754;2023-04-21T06:19:03;100567.09;;;7.31;87.03
75063;BME280;63981;51.052;13.754;2023-04-21T06:21:29;100573.44;;;7.45;86.16
75063;BME280;63981;51.052;13.754;2023-04-21T06:23:55;100562.75;;;7.66;85.00
75063;BME280;63981;51.052;13.754;2023-04-21T06:26:21;100568.25;;;7.79;85.88
75063;BME280;63981;51.052;13.754;2023-04-21T06:28:46;100563.97;;;7.95;84.24
75063;BME280;63981;51.052;13.754;2023-04-21T06:31:12;100490.69;;;7.91;85.13
75063;BME280;63981;51.052;13.754;2023-04-21T06:33:41;100552.59;;;8.80;84.55
75063;BME280;63981;51.052;13.754;2023-04-21T06:36:07;100553.72;;;8.92;82.54
75063;BME280;63981;51.052;13.754;2023-04-21T06:38:32;100555.19;;;9.29;82.92
75063;BME280;63981;51.052;13.754;2023-04-21T06:40:58;100550.09;;;9.41;81.42
75063;BME280;63981;51.052;13.754;2023-04-21T06:43:24;100522.97;;;9.71;80.68
75063;BME280;63981;51.052;13.754;2023-04-21T06:45:50;100554.25;;;10.21;79.78
75063;BME280;63981;51.052;13.754;2023-04-21T06:48:15;100505.84;;;10.08;79.32
75063;BME280;63981;51.052;13.754;2023-04-21T06:50:41;100543.75;;;11.07;74.48
75063;BME280;63981;51.052;13.754;2023-04-21T06:53:09;100546.66;;;11.02;74.48
75063;BME280;63981;51.052;13.754;2023-04-21T06:55:36;100492.09;;;10.33;75.21
75063;BME280;63981;51.052;13.754;2023-04-21T06:58:02;100546.03;;;10.70;74.19
75063;BME280;63981;51.052;13.754;2023-04-21T07:00:27;100543.44;;;11.52;74.20
75063;BME280;63981;51.052;13.754;2023-04-21T07:02:53;100540.78;;;11.52;71.03
75063;BME280;63981;51.052;13.754;2023-04-21T07:05:19;100543.44;;;12.70;70.87
75063;BME280;63981;51.052;13.754;2023-04-21T07:07:44;100536.03;;;12.62;69.01
75063;BME280;63981;51.052;13.754;2023-04-21T07:10:10;100536.91;;;13.49;68.16
75063;BME280;63981;51.052;13.754;2023-04-21T07:12:36;100548.50;;;12.86;65.34
75063;BME280;63981;51.052;13.754;2023-04-21T07:15:02;100535.41;;;14.28;64.10
75063;BME280;63981;51.052;13.754;2023-04-21T07:17:27;100536.44;;;13.68;62.00
75063;BME280;63981;51.052;13.754;2023-04-21T07:19:53;100525.31;;;14.44;62.60
75063;BME280;63981;51.052;13.754;2023-04-21T07:22:19;100512.84;;;13.76;60.74
75063;BME280;63981;51.052;13.754;2023-04-21T07:24:44;100506.06;;;14.87;60.28
75063;BME280;63981;51.052;13.754;2023-04-21T07:27:10;100525.59;;;14.63;57.48
75063;BME280;63981;51.052;13.754;2023-04-21T07:29:36;100522.84;;;15.42;56.69
75063;BME280;63981;51.052;13.754;2023-04-21T07:32:01;100524.06;;;15.38;55.95
75063;BME280;63981;51.052;13.754;2023-04-21T07:34:27;100501.81;;;15.50;53.38
75063;BME280;63981;51.052;13.754;2023-04-21T07:36:54;100509.16;;;15.03;54.00
75063;BME280;63981;51.052;13.754;2023-04-21T07:39:20;100509.41;;;16.79;52.12
75063;BME280;63981;51.052;13.754;2023-04-21T07:41:46;100497.22;;;18.23;47.53
75063;BME280;63981;51.052;13.754;2023-04-21T07:44:11;100443.94;;;18.41;47.25
75063;BME280;63981;51.052;13.754;2023-04-21T07:46:37;100493.84;;;19.23;45.65
75063;BME280;63981;51.052;13.754;2023-04-21T07:49:03;100490.84;;;19.89;44.88
75063;BME280;63981;51.052;13.754;2023-04-21T07:51:29;100479.84;;;19.11;44.79
75063;BME280;63981;51.052;13.754;2023-04-21T07:53:54;100443.09;;;20.02;43.43
75063;BME280;63981;51.052;13.754;2023-04-21T07:56:20;100490.19;;;20.99;40.48
75063;BME280;63981;51.052;13.754;2023-04-21T07:58:46;100487.59;;;21.32;40.95
75063;BME280;63981;51.052;13.754;2023-04-21T08:01:12;100486.16;;;21.86;41.70
75063;BME280;63981;51.052;13.754;2023-04-21T08:03:38;100478.09;;;22.19;37.45
75063;BME280;63981;51.052;13.754;2023-04-21T08:06:03;100484.00;;;21.90;37.64
75063;BME280;63981;51.052;13.754;2023-04-21T08:08:29;100471.28;;;23.57;36.38
75063;BME280;63981;51.052;13.754;2023-04-21T08:10:55;100430.06;;;22.32;36.16
75063;BME280;63981;51.052;13.754;2023-04-21T08:13:21;100472.69;;;23.98;36.36
75063;BME280;63981;51.052;13.754;2023-04-21T08:15:50;100458.38;;;24.50;33.88
75063;BME280;63981;51.052;13.754;2023-04-21T08:18:16;100463.91;;;24.78;34.00
75063;BME280;63981;51.052;13.754;2023-04-21T08:20:44;100461.28;;;25.36;30.08
75063;BME280;63981;51.052;13.754;2023-04-21T08:23:15;100398.94;;;23.85;32.40
75063;BME280;63981;51.052;13.754;2023-04-21T08:25:41;100458.06;;;25.25;29.83
75063;BME280;63981;51.052;13.754;2023-04-21T08:28:06;100458.16;;;23.85;31.68
75063;BME280;63981;51.052;13.754;2023-04-21T08:30:32;100446.22;;;21.59;33.31
75063;BME280;63981;51.052;13.754;2023-04-21T08:32:58;100452.03;;;22.44;31.17
75063;BME280;63981;51.052;13.754;2023-04-21T08:35:24;100446.44;;;23.77;28.42
75063;BME280;63981;51.052;13.754;2023-04-21T08:37:50;100440.75;;;23.72;28.48
75063;BME280;63981;51.052;13.754;2023-04-21T08:40:17;100442.34;;;23.81;28.75
75063;BME280;63981;51.052;13.754;2023-04-21T08:42:44;100432.38;;;23.44;28.61
75063;BME280;63981;51.052;13.754;2023-04-21T08:45:10;100424.25;;;22.67;29.17
75063;BME280;63981;51.052;13.754;2023-04-21T08:47:40;100439.84;;;23.80;26.01
75063;BME280;63981;51.052;13.754;2023-04-21T08:50:07;100418.56;;;23.70;26.19
75063;BME280;63981;51.052;13.754;2023-04-21T08:52:36;100437.03;;;23.50;26.12
75063;BME280;63981;51.052;13.754;2023-04-21T08:55:02;100434.56;;;22.87;25.82
75063;BME280;63981;51.052;13.754;2023-04-21T08:57:29;100432.63;;;23.35;25.82
75063;BME280;63981;51.052;13.754;2023-04-21T08:59:55;100422.53;;;25.01;24.47
75063;BME280;63981;51.052;13.754;2023-04-21T09:02:21;100435.66;;;24.74;25.08
75063;BME280;63981;51.052;13.754;2023-04-21T09:04:48;100436.00;;;25.79;23.58
75063;BME280;63981;51.052;13.754;2023-04-21T09:07:31;100432.72;;;24.39;24.11
75063;BME280;63981;51.052;13.754;2023-04-21T09:09:57;100420.22;;;26.11;22.93
75063;BME280;63981;51.052;13.754;2023-04-21T09:12:25;100424.09;;;24.06;24.19
75063;BME280;63981;51.052;13.754;2023-04-21T09:14:52;100430.44;;;23.30;25.13
75063;BME280;63981;51.052;13.754;2023-04-21T09:17:21;100427.81;;;23.22;25.64
75063;BME280;63981;51.052;13.754;2023-04-21T09:19:47;100419.69;;;24.43;23.66
75063;BME280;63981;51.052;13.754;2023-04-21T09:22:15;100402.31;;;26.10;22.51
75063;BME280;63981;51.052;13.754;2023-04-21T09:24:48;100413.84;;;26.25;23.13
75063;BME280;63981;51.052;13.754;2023-04-21T09:27:15;100417.66;;;26.03;23.20
75063;BME280;63981;51.052;13.754;2023-04-21T09:29:45;100405.97;;;27.32;21.58
75063;BME280;63981;51.052;13.754;2023-04-21T09:32:18;100405.88;;;28.65;19.15
75063;BME280;63981;51.052;13.754;2023-04-21T09:34:45;100393.31;;;26.31;20.90
75063;BME280;63981;51.052;13.754;2023-04-21T09:37:12;100397.47;;;27.82;20.73
75063;BME280;63981;51.052;13.754;2023-04-21T09:39:38;100397.28;;;29.13;18.23
75063;BME280;63981;51.052;13.754;2023-04-21T09:42:10;100407.44;;;25.70;20.55
75063;BME280;63981;51.052;13.754;2023-04-21T09:44:35;100400.22;;;27.75;19.63
75063;BME280;63981;51.052;13.754;2023-04-21T09:47:04;100347.31;;;29.52;18.09
75063;BME280;63981;51.052;13.754;2023-04-21T09:49:34;100393.59;;;28.56;17.59
75063;BME280;63981;51.052;13.754;2023-04-21T09:52:02;100387.56;;;30.05;17.52
75063;BME280;63981;51.052;13.754;2023-04-21T09:54:29;100393.31;;;26.72;19.17
75063;BME280;63981;51.052;13.754;2023-04-21T09:57:01;100400.69;;;25.17;20.48
75063;BME280;63981;51.052;13.754;2023-04-21T09:59:37;100378.28;;;27.97;19.30
75063;BME280;63981;51.052;13.754;2023-04-21T10:02:06;100381.03;;;27.70;20.05
75063;BME280;63981;51.052;13.754;2023-04-21T10:04:33;100365.28;;;28.83;18.86
75063;BME280;63981;51.052;13.754;2023-04-21T10:07:00;100372.72;;;31.76;17.01
75063;BME280;63981;51.052;13.754;2023-04-21T10:09:30;100351.75;;;29.15;16.84
75063;BME280;63981;51.052;13.754;2023-04-21T10:12:00;100376.00;;;29.10;16.80
75063;BME280;63981;51.052;13.754;2023-04-21T10:14:27;100367.63;;;29.67;16.71
75063;BME280;63981;51.052;13.754;2023-04-21T10:17:04;100349.50;;;30.05;16.51
75063;BME280;63981;51.052;13.754;2023-04-21T10:19:30;100350.50;;;31.25;15.09
75063;BME280;63981;51.052;13.754;2023-04-21T10:22:07;100360.25;;;28.93;16.61
75063;BME280;63981;51.052;13.754;2023-04-21T10:24:43;100366.31;;;28.37;17.14
75063;BME280;63981;51.052;13.754;2023-04-21T10:27:11;100357.03;;;27.94;17.44
75063;BME280;63981;51.052;13.754;2023-04-21T10:29:37;100366.22;;;26.17;19.24
75063;BME280;63981;51.052;13.754;2023-04-21T10:32:03;100355.13;;;28.07;17.09
75063;BME280;63981;51.052;13.754;2023-04-21T10:34:37;100344.75;;;27.91;17.38
75063;BME280;63981;51.052;13.754;2023-04-21T10:39:33;100342.94;;;25.33;19.11
75063;BME280;63981;51.052;13.754;2023-04-21T10:44:44;100346.69;;;26.57;18.33
75063;BME280;63981;51.052;13.754;2023-04-21T10:49:52;100315.56;;;28.96;16.60
75063;BME280;63981;51.052;13.754;2023-04-21T10:52:19;100346.75;;;25.94;19.17
75063;BME280;63981;51.052;13.754;2023-04-21T10:57:19;100339.09;;;27.99;17.82
75063;BME280;63981;51.052;13.754;2023-04-21T10:59:46;100325.75;;;32.09;14.32
75063;BME280;63981;51.052;13.754;2023-04-21T11:02:15;100333.22;;;28.09;16.55
75063;BME280;63981;51.052;13.754;2023-04-21T11:04:41;100317.16;;;29.03;16.06
75063;BME280;63981;51.052;13.754;2023-04-21T11:07:15;100312.31;;;34.76;12.85
75063;BME280;63981;51.052;13.754;2023-04-21T11:09:41;100311.66;;;32.52;13.38
75063;BME280;63981;51.052;13.754;2023-04-21T11:12:12;100313.69;;;30.93;15.09
75063;BME280;63981;51.052;13.754;2023-04-21T11:14:39;100302.63;;;30.28;15.61
75063;BME280;63981;51.052;13.754;2023-04-21T11:17:10;100329.50;;;28.99;15.84
75063;BME280;63981;51.052;13.754;2023-04-21T11:19:36;100332.34;;;26.28;18.22
75063;BME280;63981;51.052;13.754;2023-04-21T11:22:03;100307.47;;;27.53;17.45
75063;BME280;63981;51.052;13.754;2023-04-21T11:24:32;100324.94;;;28.55;16.72
75063;BME280;63981;51.052;13.754;2023-04-21T11:26:59;100299.16;;;27.28;17.40
75063;BME280;63981;51.052;13.754;2023-04-21T11:29:28;100313.50;;;29.41;16.08
75063;BME280;63981;51.052;13.754;2023-04-21T11:31:54;100307.66;;;31.79;13.60
75063;BME280;63981;51.052;13.754;2023-04-21T11:34:21;100325.47;;;28.32;16.66
75063;BME280;63981;51.052;13.754;2023-04-21T11:36:47;100273.28;;;31.66;13.93
75063;BME280;63981;51.052;13.754;2023-04-21T11:39:15;100311.97;;;28.06;16.61
75063;BME280;63981;51.052;13.754;2023-04-21T11:41:45;100305.13;;;31.89;13.33
75063;BME280;63981;51.052;13.754;2023-04-21T11:44:12;100287.16;;;34.30;13.57
75063;BME280;63981;51.052;13.754;2023-04-21T11:46:45;100293.81;;;32.61;13.54
75063;BME280;63981;51.052;13.754;2023-04-21T11:49:12;100310.13;;;27.93;16.62
75063;BME280;63981;51.052;13.754;2023-04-21T11:51:42;100333.31;;;25.51;18.90
75063;BME280;63981;51.052;13.754;2023-04-21T11:54:10;100310.00;;;28.39;17.42
75063;BME280;63981;51.052;13.754;2023-04-21T11:56:41;100290.13;;;30.87;15.23
75063;BME280;63981;51.052;13.754;2023-04-21T11:59:15;100282.09;;;35.62;11.70
75063;BME280;63981;51.052;13.754;2023-04-21T12:01:45;100303.19;;;29.00;16.22
75063;BME280;63981;51.052;13.754;2023-04-21T12:04:14;100311.97;;;29.77;17.15
75063;BME280;63981;51.052;13.754;2023-04-21T12:06:42;100315.44;;;25.22;20.52
75063;BME280;63981;51.052;13.754;2023-04-21T12:09:08;100296.72;;;24.57;20.89
75063;BME280;63981;51.052;13.754;2023-04-21T12:11:33;100299.00;;;29.29;16.97
75063;BME280;63981;51.052;13.754;2023-04-21T12:14:00;100213.53;;;29.56;15.73
75063;BME280;63981;51.052;13.754;2023-04-21T12:16:27;100284.66;;;31.40;15.58
75063;BME280;63981;51.052;13.754;2023-04-21T12:18:54;100270.88;;;34.40;13.06
75063;BME280;63981;51.052;13.754;2023-04-21T12:21:25;100288.72;;;32.53;14.00
75063;BME280;63981;51.052;13.754;2023-04-21T12:23:51;100287.13;;;32.69;14.07
75063;BME280;63981;51.052;13.754;2023-04-21T12:26:17;100287.50;;;31.92;14.18
75063;BME280;63981;51.052;13.754;2023-04-21T12:28:43;100289.78;;;32.23;13.81
75063;BME280;63981;51.052;13.754;2023-04-21T12:31:08;100311.06;;;24.42;20.20
75063;BME280;63981;51.052;13.754;2023-04-21T12:33:34;100295.47;;;26.49;18.74
75063;BME280;63981;51.052;13.754;2023-04-21T12:36:00;100288.44;;;26.61;18.60
75063;BME280;63981;51.052;13.754;2023-04-21T12:38:26;100276.81;;;28.44;16.80
75063;BME280;63981;51.052;13.754;2023-04-21T12:40:52;100272.50;;;28.99;16.83
75063;BME280;63981;51.052;13.754;2023-04-21T12:43:18;100280.09;;;28.01;17.09
75063;BME280;63981;51.052;13.754;2023-04-21T12:45:43;100271.50;;;29.87;15.98
75063;BME280;63981;51.052;13.754;2023-04-21T12:48:09;100264.59;;;33.24;13.92
75063;BME280;63981;51.052;13.754;2023-04-21T12:50:35;100258.56;;;28.96;16.26
75063;BME280;63981;51.052;13.754;2023-04-21T12:53:00;100267.50;;;30.08;15.64
75063;BME280;63981;51.052;13.754;2023-04-21T12:55:26;100251.91;;;33.18;13.27
75063;BME280;63981;51.052;13.754;2023-04-21T12:57:52;100250.75;;;36.00;12.43
75063;BME280;63981;51.052;13.754;2023-04-21T13:00:18;100259.94;;;29.91;15.44
75063;BME280;63981;51.052;13.754;2023-04-21T13:02:44;100192.63;;;30.23;15.19